createdAt,value
2018-09-08T00:01:02.544Z,13.58
2018-09-08T00:03:30.786Z,13.57
2018-09-08T00:05:59.018Z,13.29
2018-09-08T00:08:27.226Z,13.47
2018-09-08T00:10:55.459Z,13.54
2018-09-08T00:13:23.657Z,13.32
2018-09-08T00:15:57.257Z,13.45
2018-09-08T00:18:30.783Z,13.09
2018-09-08T00:21:04.312Z,13.14
2018-09-08T00:23:37.754Z,13.28
2018-09-08T00:26:11.306Z,13.11
2018-09-08T00:28:45.906Z,13.27
2018-09-08T00:31:16.790Z,13.39
2018-09-08T00:33:45.230Z,13.13
2018-09-08T00:36:13.478Z,13.01
2018-09-08T00:38:41.746Z,12.90
2018-09-08T00:41:09.980Z,12.98
2018-09-08T00:43:38.401Z,12.50
2018-09-08T00:46:07.086Z,12.71
2018-09-08T00:48:35.286Z,12.58
2018-09-08T00:51:03.519Z,12.65
2018-09-08T00:53:31.728Z,12.65
2018-09-08T00:55:59.969Z,12.79
2018-09-08T00:58:28.302Z,12.54
2018-09-08T01:00:56.649Z,12.67
2018-09-08T01:03:24.859Z,12.41
2018-09-08T01:05:53.398Z,12.55
2018-09-08T01:08:21.635Z,12.20
2018-09-08T01:10:49.869Z,12.36
2018-09-08T01:13:18.097Z,12.24
2018-09-08T01:15:46.305Z,12.23
2018-09-08T01:18:14.534Z,12.40
2018-09-08T01:20:42.773Z,12.18
2018-09-08T01:23:10.987Z,12.11
2018-09-08T01:25:39.518Z,12.27
2018-09-08T01:28:07.744Z,12.21
2018-09-08T01:30:35.966Z,12.44
2018-09-08T01:33:04.383Z,12.48
2018-09-08T01:35:32.594Z,12.48
2018-09-08T01:38:00.808Z,12.39
2018-09-08T01:40:29.136Z,12.40
2018-09-08T01:42:57.410Z,12.53
2018-09-08T01:45:25.688Z,13.36
2018-09-08T01:47:53.923Z,13.79
2018-09-08T01:50:22.182Z,13.64
2018-09-08T01:52:50.414Z,13.69
2018-09-08T01:55:18.726Z,13.63
2018-09-08T01:57:46.966Z,13.71
2018-09-08T02:00:17.266Z,13.76
2018-09-08T02:02:45.526Z,13.62
2018-09-08T02:05:13.806Z,13.64
2018-09-08T02:07:42.060Z,13.69
2018-09-08T02:10:10.281Z,13.99
2018-09-08T02:12:38.565Z,13.86
2018-09-08T02:15:06.790Z,13.85
2018-09-08T02:17:35.015Z,13.17
2018-09-08T02:20:03.275Z,13.33
2018-09-08T02:22:31.508Z,13.88
2018-09-08T02:24:59.779Z,13.66
2018-09-08T02:27:28.006Z,12.99
2018-09-08T02:29:56.343Z,13.47
2018-09-08T02:32:24.569Z,13.64
2018-09-08T02:34:52.803Z,13.72
2018-09-08T02:37:21.104Z,13.59
2018-09-08T02:39:49.408Z,13.83
2018-09-08T02:42:17.631Z,13.36
2018-09-08T02:44:45.858Z,13.39
2018-09-08T02:47:14.083Z,12.93
2018-09-08T02:49:53.591Z,13.55
2018-09-08T02:52:20.689Z,13.05
2018-09-08T02:54:47.815Z,13.70
2018-09-08T02:57:14.958Z,13.80
2018-09-08T02:59:42.123Z,13.50
2018-09-08T03:02:09.257Z,13.49
2018-09-08T03:04:36.382Z,13.71
2018-09-08T03:07:07.654Z,13.64
2018-09-08T03:09:35.039Z,13.72
2018-09-08T03:12:02.163Z,13.68
2018-09-08T03:14:29.309Z,13.28
2018-09-08T03:16:56.438Z,13.00
2018-09-08T03:19:23.562Z,12.78
2018-09-08T03:21:50.707Z,13.01
2018-09-08T03:24:17.825Z,13.35
2018-09-08T03:26:44.973Z,13.06
2018-09-08T03:29:12.094Z,13.09
2018-09-08T03:31:39.230Z,13.06
2018-09-08T03:34:06.365Z,12.38
2018-09-08T03:36:33.497Z,12.86
2018-09-08T03:39:00.637Z,12.74
2018-09-08T03:41:27.762Z,12.96
2018-09-08T03:43:54.894Z,12.91
2018-09-08T03:46:22.025Z,12.95
2018-09-08T03:48:49.141Z,12.54
2018-09-08T03:51:16.282Z,12.30
2018-09-08T03:53:43.423Z,12.56
2018-09-08T03:56:10.533Z,13.03
2018-09-08T03:58:37.674Z,12.74
2018-09-08T04:01:04.786Z,12.95
2018-09-08T04:03:33.020Z,12.86
2018-09-08T04:06:01.275Z,12.82
2018-09-08T04:08:29.506Z,13.05
2018-09-08T04:10:57.754Z,12.58
2018-09-08T04:13:25.974Z,12.38
2018-09-08T04:15:54.215Z,12.71
2018-09-08T04:18:22.440Z,13.22
2018-09-08T04:20:50.671Z,12.82
2018-09-08T04:23:18.922Z,13.24
2018-09-08T04:25:47.155Z,12.95
2018-09-08T04:28:15.398Z,12.80
2018-09-08T04:30:43.622Z,12.82
2018-09-08T04:33:11.849Z,12.66
2018-09-08T04:35:40.095Z,12.55
2018-09-08T04:38:08.335Z,12.66
2018-09-08T04:40:36.623Z,12.89
2018-09-08T04:43:04.865Z,12.46
2018-09-08T04:45:33.080Z,12.58
2018-09-08T04:48:01.298Z,12.29
2018-09-08T04:50:29.544Z,12.48
2018-09-08T04:52:57.802Z,12.38
2018-09-08T04:55:26.027Z,12.25
2018-09-08T04:57:54.288Z,12.17
2018-09-08T05:00:22.543Z,11.55
2018-09-08T05:02:50.767Z,11.94
2018-09-08T05:05:19.014Z,12.19
2018-09-08T05:07:47.603Z,11.65
2018-09-08T05:10:15.818Z,11.87
2018-09-08T05:12:44.047Z,11.60
2018-09-08T05:15:12.275Z,11.75
2018-09-08T05:17:40.510Z,11.28
2018-09-08T05:20:09.145Z,11.30
2018-09-08T05:22:37.530Z,11.21
2018-09-08T05:25:05.779Z,11.86
2018-09-08T05:27:34.315Z,11.29
2018-09-08T05:30:02.838Z,11.28
2018-09-08T05:32:31.099Z,11.41
2018-09-08T05:34:59.387Z,11.95
2018-09-08T05:37:27.573Z,12.46
2018-09-08T05:39:55.799Z,12.10
2018-09-08T05:42:27.418Z,11.71
2018-09-08T05:44:55.637Z,12.34
2018-09-08T05:47:23.861Z,11.92
2018-09-08T05:49:52.108Z,11.67
2018-09-08T05:52:20.338Z,11.85
2018-09-08T05:54:48.581Z,11.72
2018-09-08T05:57:16.834Z,12.29
2018-09-08T05:59:45.071Z,12.50
2018-09-08T06:02:13.328Z,12.05
2018-09-08T06:04:41.547Z,11.98
2018-09-08T06:07:09.807Z,11.90
2018-09-08T06:09:38.048Z,12.68
2018-09-08T06:12:06.274Z,12.51
2018-09-08T06:14:34.506Z,12.61
2018-09-08T06:17:02.749Z,12.44
2018-09-08T06:19:30.975Z,11.94
2018-09-08T06:21:59.221Z,12.43
2018-09-08T06:24:27.524Z,11.80
2018-09-08T06:26:55.722Z,11.60
2018-09-08T06:29:23.992Z,11.70
2018-09-08T06:31:52.329Z,11.72
2018-09-08T06:34:20.493Z,11.85
2018-09-08T06:36:48.703Z,12.24
2018-09-08T06:39:17.033Z,11.88
2018-09-08T06:41:45.239Z,12.12
2018-09-08T06:44:13.503Z,11.87
2018-09-08T06:46:46.785Z,12.17
2018-09-08T06:49:15.030Z,12.73
2018-09-08T06:51:45.187Z,12.58
2018-09-08T06:54:13.431Z,12.58
2018-09-08T06:56:41.682Z,13.04
2018-09-08T06:59:09.925Z,13.00
2018-09-08T07:01:40.250Z,14.03
2018-09-08T07:04:08.478Z,13.46
2018-09-08T07:06:36.801Z,14.35
2018-09-08T07:09:07.786Z,13.84
2018-09-08T07:11:36.047Z,14.50
2018-09-08T07:14:04.297Z,14.35
2018-09-08T07:16:32.534Z,14.41
2018-09-08T07:19:00.828Z,14.83
2018-09-08T07:21:29.081Z,14.86
2018-09-08T07:23:57.306Z,15.36
2018-09-08T07:26:25.553Z,15.09
2018-09-08T07:28:53.781Z,15.49
2018-09-08T07:31:22.014Z,15.52
2018-09-08T07:33:50.266Z,15.72
2018-09-08T07:36:18.511Z,16.64
2018-09-08T07:38:46.758Z,17.02
2018-09-08T07:41:14.998Z,17.18
2018-09-08T07:43:44.294Z,17.36
2018-09-08T07:46:12.572Z,17.38
2018-09-08T07:48:41.027Z,16.55
2018-09-08T07:51:10.323Z,17.04
2018-09-08T07:53:38.678Z,17.66
2018-09-08T07:56:09.126Z,17.66
2018-09-08T07:58:37.446Z,18.57
2018-09-08T08:01:05.684Z,17.33
2018-09-08T08:03:34.006Z,16.91
2018-09-08T08:06:05.948Z,18.02
2018-09-08T08:08:35.299Z,18.37
2018-09-08T08:11:03.583Z,17.58
2018-09-08T08:13:31.847Z,17.69
2018-09-08T08:16:00.154Z,18.79
2018-09-08T08:18:28.427Z,18.28
2018-09-08T08:20:56.731Z,17.48
2018-09-08T08:23:25.019Z,18.12
2018-09-08T08:25:53.299Z,18.80
2018-09-08T08:28:21.600Z,18.75
2018-09-08T08:30:49.866Z,18.41
2018-09-08T08:33:19.205Z,18.73
2018-09-08T08:35:47.506Z,18.10
2018-09-08T08:38:15.739Z,17.88
2018-09-08T08:40:43.967Z,18.87
2018-09-08T08:43:12.305Z,18.49
2018-09-08T08:45:41.594Z,18.10
2018-09-08T08:48:09.794Z,18.85
2018-09-08T08:51:47.883Z,18.62
2018-09-08T08:54:21.790Z,18.59
2018-09-08T08:56:50.038Z,17.51
2018-09-08T08:59:18.271Z,18.78
2018-09-08T09:01:46.518Z,19.31
2018-09-08T09:04:14.745Z,18.72
2018-09-08T09:06:43.010Z,19.19
2018-09-08T09:09:13.240Z,19.33
2018-09-08T09:11:41.479Z,19.32
2018-09-08T09:14:09.902Z,19.49
2018-09-08T09:16:38.177Z,19.40
2018-09-08T09:19:34.794Z,19.71
2018-09-08T09:22:15.642Z,19.24
2018-09-08T09:24:55.760Z,19.25
2018-09-08T09:27:24.612Z,19.41
2018-09-08T09:29:53.087Z,19.60
2018-09-08T09:32:21.427Z,19.75
2018-09-08T09:34:49.767Z,20.28
2018-09-08T09:37:18.037Z,20.61
2018-09-08T09:39:47.687Z,20.69
2018-09-08T09:42:15.939Z,20.22
2018-09-08T09:44:44.255Z,20.42
2018-09-08T09:47:14.544Z,20.54
2018-09-08T09:49:42.754Z,20.69
2018-09-08T09:52:11.036Z,20.40
2018-09-08T09:54:39.298Z,20.83
2018-09-08T09:57:08.696Z,20.97
2018-09-08T09:59:37.033Z,21.09
2018-09-08T10:02:11.604Z,20.89
2018-09-08T10:04:39.804Z,20.68
2018-09-08T10:07:09.501Z,20.86
2018-09-08T10:09:39.096Z,20.84
2018-09-08T10:12:07.407Z,20.74
2018-09-08T10:14:35.610Z,20.88
2018-09-08T10:17:03.826Z,20.90
2018-09-08T10:19:32.071Z,20.48
2018-09-08T10:22:00.333Z,20.54
2018-09-08T10:24:28.565Z,20.45
2018-09-08T10:26:56.815Z,20.66
2018-09-08T10:29:25.058Z,20.65
2018-09-08T10:31:53.286Z,20.51
2018-09-08T10:34:21.529Z,20.65
2018-09-08T10:36:49.753Z,20.30
2018-09-08T10:39:18.019Z,20.51
2018-09-08T10:41:46.241Z,20.72
2018-09-08T10:44:14.498Z,20.73
2018-09-08T10:46:42.759Z,20.92
2018-09-08T10:49:10.999Z,21.13
2018-09-08T10:51:48.643Z,21.08
2018-09-08T10:54:17.138Z,20.95
2018-09-08T10:56:45.363Z,21.23
2018-09-08T10:59:13.639Z,21.27
2018-09-08T11:01:41.939Z,21.30
2018-09-08T11:04:10.115Z,21.28
2018-09-08T11:06:38.384Z,21.33
2018-09-08T11:09:06.975Z,20.88
2018-09-08T11:11:35.333Z,21.19
2018-09-08T11:14:03.574Z,21.20
2018-09-08T11:16:31.805Z,21.18
2018-09-08T11:19:00.369Z,20.98
2018-09-08T11:21:28.622Z,21.21
2018-09-08T11:23:56.858Z,21.12
2018-09-08T11:26:25.106Z,21.43
2018-09-08T11:28:55.409Z,21.47
2018-09-08T11:31:23.630Z,21.56
2018-09-08T11:33:51.867Z,21.69
2018-09-08T11:36:20.118Z,21.39
2018-09-08T11:38:48.375Z,21.59
2018-09-08T11:41:16.602Z,21.80
2018-09-08T11:43:44.840Z,21.79
2018-09-08T11:46:13.074Z,21.66
2018-09-08T11:48:41.305Z,21.59
2018-09-08T11:51:09.550Z,21.51
2018-09-08T11:53:37.823Z,21.79
2018-09-08T11:56:06.123Z,21.75
2018-09-08T11:58:34.358Z,21.82
2018-09-08T12:01:02.606Z,21.65
2018-09-08T12:03:30.833Z,21.69
2018-09-08T12:05:59.062Z,21.64
2018-09-08T12:08:27.288Z,21.63
2018-09-08T12:10:55.579Z,21.32
2018-09-08T12:13:23.797Z,21.41
2018-09-08T12:15:52.010Z,21.38
2018-09-08T12:18:20.255Z,21.30
2018-09-08T12:20:48.505Z,21.24
2018-09-08T12:23:16.761Z,21.36
2018-09-08T12:25:45.003Z,21.44
2018-09-08T12:28:13.295Z,21.90
2018-09-08T12:30:41.616Z,21.96
2018-09-08T12:33:09.800Z,22.25
2018-09-08T12:35:38.100Z,22.07
2018-09-08T12:38:06.342Z,22.22
2018-09-08T12:40:34.568Z,22.19
2018-09-08T12:43:02.814Z,22.53
2018-09-08T12:45:31.043Z,22.43
2018-09-08T12:47:59.274Z,22.48
2018-09-08T12:50:27.501Z,22.41
2018-09-08T12:52:55.742Z,22.59
2018-09-08T12:55:24.011Z,22.64
2018-09-08T12:57:52.223Z,22.95
2018-09-08T13:00:20.471Z,22.90
2018-09-08T13:02:48.695Z,22.78
2018-09-08T13:05:16.914Z,23.11
2018-09-08T13:07:45.217Z,23.27
2018-09-08T13:10:13.417Z,23.15
2018-09-08T13:12:41.667Z,23.31
2018-09-08T13:15:09.877Z,23.45
2018-09-08T13:17:38.132Z,23.50
2018-09-08T13:20:06.431Z,23.37
2018-09-08T13:22:34.678Z,22.90
2018-09-08T13:25:02.897Z,23.20
2018-09-08T13:27:31.138Z,23.53
2018-09-08T13:29:59.394Z,23.70
2018-09-08T13:32:27.667Z,23.51
2018-09-08T13:34:55.930Z,23.76
2018-09-08T13:37:24.159Z,23.71
2018-09-08T13:39:52.431Z,23.42
2018-09-08T13:42:20.767Z,23.12
2018-09-08T13:44:48.991Z,23.21
2018-09-08T13:47:17.237Z,23.17
2018-09-08T13:49:45.591Z,23.08
2018-09-08T13:52:13.833Z,23.49
2018-09-08T13:54:42.095Z,23.76
2018-09-08T13:57:10.365Z,23.85
2018-09-08T13:59:38.561Z,23.92
2018-09-08T14:02:06.810Z,23.69
2018-09-08T14:04:35.094Z,23.85
2018-09-08T14:07:03.334Z,23.71
2018-09-08T14:09:31.574Z,23.60
2018-09-08T14:11:59.799Z,23.81
2018-09-08T14:14:28.022Z,23.25
2018-09-08T14:16:56.245Z,23.64
2018-09-08T14:19:24.503Z,23.85
2018-09-08T14:21:52.738Z,23.84
2018-09-08T14:24:20.951Z,24.00
2018-09-08T14:26:49.179Z,24.08
2018-09-08T14:29:17.405Z,24.14
2018-09-08T14:31:45.632Z,24.20
2018-09-08T14:34:13.862Z,24.11
2018-09-08T14:36:42.159Z,24.22
2018-09-08T14:39:10.807Z,24.32
2018-09-08T14:41:39.028Z,24.17
2018-09-08T14:44:07.458Z,24.60
2018-09-08T14:46:35.691Z,24.49
2018-09-08T14:49:03.923Z,24.35
2018-09-08T14:51:32.137Z,24.01
2018-09-08T14:54:00.399Z,23.73
2018-09-08T14:56:28.609Z,23.68
2018-09-08T14:58:56.832Z,23.68
2018-09-08T15:01:25.082Z,23.50
2018-09-08T15:03:53.306Z,23.69
2018-09-08T15:06:21.547Z,23.60
2018-09-08T15:08:49.787Z,23.75
2018-09-08T15:11:18.005Z,23.91
2018-09-08T15:13:46.210Z,24.08
2018-09-08T15:16:14.426Z,23.59
2018-09-08T15:18:42.673Z,23.70
2018-09-08T15:21:15.842Z,23.71
2018-09-08T15:23:44.090Z,23.80
2018-09-08T15:26:12.319Z,23.90
2018-09-08T15:28:40.536Z,23.94
2018-09-08T15:31:08.750Z,24.10
2018-09-08T15:33:36.975Z,23.92
2018-09-08T15:36:05.191Z,23.91
2018-09-08T15:38:33.424Z,23.64
2018-09-08T15:41:01.638Z,23.72
2018-09-08T15:43:30.125Z,23.35
2018-09-08T15:45:58.438Z,23.41
2018-09-08T15:48:26.601Z,23.53
2018-09-08T15:50:54.855Z,23.40
2018-09-08T15:53:23.069Z,23.46
2018-09-08T15:55:51.318Z,23.28
2018-09-08T15:58:19.603Z,23.28
2018-09-08T16:00:47.794Z,23.25
2018-09-08T16:03:15.991Z,23.24
2018-09-08T16:05:44.223Z,23.39
2018-09-08T16:08:12.455Z,23.23
2018-09-08T16:10:40.670Z,23.36
2018-09-08T16:13:10.557Z,23.17
2018-09-08T16:15:38.778Z,23.29
2018-09-08T16:18:07.074Z,23.28
2018-09-08T16:20:35.275Z,23.26
2018-09-08T16:23:03.505Z,23.30
2018-09-08T16:25:31.722Z,23.39
2018-09-08T16:27:59.943Z,23.35
2018-09-08T16:30:28.158Z,23.29
2018-09-08T16:32:56.482Z,23.23
2018-09-08T16:35:24.703Z,23.24
2018-09-08T16:37:52.947Z,23.18
2018-09-08T16:40:21.257Z,23.03
2018-09-08T16:42:49.440Z,22.78
2018-09-08T16:45:17.705Z,22.61
2018-09-08T16:47:45.947Z,22.48
2018-09-08T16:50:14.185Z,22.42
2018-09-08T16:52:42.527Z,22.28
2018-09-08T16:55:10.668Z,22.30
2018-09-08T16:57:38.869Z,22.09
2018-09-08T17:00:07.215Z,22.09
2018-09-08T17:02:35.512Z,22.03
2018-09-08T17:05:03.837Z,22.05
2018-09-08T17:07:32.002Z,22.02
2018-09-08T17:10:00.230Z,22.00
2018-09-08T17:12:28.433Z,21.80
2018-09-08T17:14:56.658Z,21.73
2018-09-08T17:17:24.886Z,21.77
2018-09-08T17:19:55.203Z,21.64
2018-09-08T17:22:23.427Z,21.73
2018-09-08T17:24:51.654Z,21.63
2018-09-08T17:27:19.875Z,21.67
2018-09-08T17:29:48.103Z,21.72
2018-09-08T17:32:16.465Z,21.73
2018-09-08T17:34:44.663Z,21.76
2018-09-08T17:37:12.889Z,21.72
2018-09-08T17:39:41.137Z,21.69
2018-09-08T17:42:11.665Z,21.68
2018-09-08T17:44:39.890Z,21.58
2018-09-08T17:47:08.137Z,21.49
2018-09-08T17:49:36.853Z,21.53
2018-09-08T17:52:05.165Z,21.51
2018-09-08T17:54:33.345Z,21.51
2018-09-08T17:57:01.586Z,21.46
2018-09-08T17:59:29.810Z,21.38
2018-09-08T18:01:58.034Z,21.28
2018-09-08T18:04:26.271Z,21.30
2018-09-08T18:06:54.525Z,21.45
2018-09-08T18:09:22.754Z,21.26
2018-09-08T18:11:51.089Z,21.32
2018-09-08T18:14:19.267Z,21.16
2018-09-08T18:16:47.541Z,21.03
2018-09-08T18:19:15.758Z,21.09
2018-09-08T18:21:44.035Z,21.10
2018-09-08T18:24:12.259Z,21.16
2018-09-08T18:26:40.823Z,21.03
2018-09-08T18:29:09.035Z,21.13
2018-09-08T18:31:37.270Z,20.96
2018-09-08T18:34:05.502Z,20.92
2018-09-08T18:36:34.825Z,20.78
2018-09-08T18:39:03.077Z,20.91
2018-09-08T18:41:31.399Z,20.98
2018-09-08T18:43:59.546Z,20.89
2018-09-08T18:46:27.782Z,20.86
2018-09-08T18:48:56.013Z,20.81
2018-09-08T18:51:24.258Z,20.73
2018-09-08T18:53:52.542Z,20.51
2018-09-08T18:56:20.766Z,20.45
2018-09-08T18:58:48.991Z,20.75
2018-09-08T19:01:17.227Z,20.80
2018-09-08T19:03:45.450Z,20.45
2018-09-08T19:06:13.742Z,20.60
2018-09-08T19:08:42.066Z,20.82
2018-09-08T19:11:12.123Z,20.74
2018-09-08T19:13:40.309Z,20.56
2018-09-08T19:16:08.537Z,20.61
2018-09-08T19:18:36.772Z,20.51
2018-09-08T19:21:05.149Z,20.50
2018-09-08T19:23:33.387Z,20.61
2018-09-08T19:26:01.622Z,20.67
2018-09-08T19:28:29.935Z,20.43
2018-09-08T19:30:58.159Z,20.40
2018-09-08T19:33:26.502Z,20.30
2018-09-08T19:35:55.419Z,20.09
2018-09-08T19:38:26.839Z,20.36
2018-09-08T19:40:55.067Z,20.50
2018-09-08T19:43:25.983Z,20.35
2018-09-08T19:45:54.241Z,20.17
2018-09-08T19:48:22.473Z,20.48
2018-09-08T19:50:50.710Z,20.36
2018-09-08T19:53:24.289Z,20.28
2018-09-08T19:55:52.555Z,20.39
2018-09-08T19:58:26.014Z,20.13
2018-09-08T20:00:54.238Z,20.24
2018-09-08T20:03:22.507Z,20.16
2018-09-08T20:05:50.743Z,19.98
2018-09-08T20:08:19.380Z,20.12
2018-09-08T20:10:48.480Z,20.18
2018-09-08T20:13:16.738Z,20.18
2018-09-08T20:15:44.986Z,20.05
2018-09-08T20:18:13.226Z,20.19
2018-09-08T20:20:41.447Z,19.84
2018-09-08T20:23:09.685Z,20.08
2018-09-08T20:25:37.901Z,19.76
2018-09-08T20:28:06.155Z,20.06
2018-09-08T20:30:34.381Z,19.92
2018-09-08T20:33:02.598Z,19.88
2018-09-08T20:35:30.843Z,19.95
2018-09-08T20:37:59.060Z,19.94
2018-09-08T20:40:27.329Z,19.72
2018-09-08T20:42:59.331Z,19.83
2018-09-08T20:45:27.590Z,20.05
2018-09-08T20:47:55.826Z,19.54
2018-09-08T20:50:24.071Z,19.66
2018-09-08T20:52:52.336Z,19.98
2018-09-08T20:55:20.598Z,19.86
2018-09-08T20:57:48.896Z,19.83
2018-09-08T21:00:19.265Z,19.61
2018-09-08T21:02:47.547Z,18.90
2018-09-08T21:05:15.776Z,19.15
2018-09-08T21:07:44.101Z,19.17
2018-09-08T21:10:12.355Z,19.16
2018-09-08T21:12:40.677Z,19.70
2018-09-08T21:15:08.974Z,19.58
2018-09-08T21:17:39.310Z,19.96
2018-09-08T21:20:07.602Z,19.98
2018-09-08T21:22:35.885Z,19.69
2018-09-08T21:25:04.246Z,19.98
2018-09-08T21:27:32.506Z,19.47
2018-09-08T21:30:00.755Z,19.26
2018-09-08T21:32:29.003Z,18.72
2018-09-08T21:34:57.233Z,18.75
2018-09-08T21:37:25.658Z,18.88
2018-09-08T21:39:53.970Z,18.49
2018-09-08T21:42:22.195Z,18.56
2018-09-08T21:44:50.455Z,18.62
2018-09-08T21:47:18.770Z,18.68
2018-09-08T21:49:47.031Z,18.47
2018-09-08T21:52:15.347Z,18.48
2018-09-08T21:54:43.601Z,18.51
2018-09-08T21:57:11.847Z,18.38
2018-09-08T21:59:40.075Z,18.44
2018-09-08T22:02:08.314Z,18.29
2018-09-08T22:04:36.528Z,18.44
2018-09-08T22:07:04.773Z,18.46
2018-09-08T22:09:33.029Z,18.43
2018-09-08T22:12:01.225Z,18.21
2018-09-08T22:14:29.470Z,18.21
2018-09-08T22:16:57.686Z,17.73
2018-09-08T22:19:25.929Z,18.10
2018-09-08T22:21:54.151Z,17.98
2018-09-08T22:24:22.426Z,17.78
2018-09-08T22:26:50.662Z,17.87
2018-09-08T22:29:18.925Z,17.59
2018-09-08T22:31:47.180Z,17.69
2018-09-08T22:34:15.410Z,17.91
2018-09-08T22:36:43.643Z,17.96
2018-09-08T22:39:11.886Z,17.96
2018-09-08T22:41:40.128Z,17.98
2018-09-08T22:44:08.390Z,17.84
2018-09-08T22:46:36.608Z,17.69
2018-09-08T22:49:04.903Z,17.80
2018-09-08T22:51:33.325Z,17.65
2018-09-08T22:54:01.567Z,17.77
2018-09-08T22:56:29.773Z,17.62
2018-09-08T22:58:58.042Z,17.53
2018-09-08T23:01:26.262Z,17.73
2018-09-08T23:03:54.520Z,17.64
2018-09-08T23:06:22.746Z,17.85
2018-09-08T23:08:50.970Z,17.83
2018-09-08T23:11:19.209Z,17.79
2018-09-08T23:13:47.429Z,17.55
2018-09-08T23:16:16.405Z,17.46
2018-09-08T23:18:44.631Z,17.55
2018-09-08T23:21:12.845Z,17.50
2018-09-08T23:23:41.090Z,17.59
2018-09-08T23:26:09.343Z,17.56
2018-09-08T23:28:37.699Z,17.37
2018-09-08T23:31:05.979Z,17.58
2018-09-08T23:33:34.291Z,17.36
2018-09-08T23:36:03.658Z,17.34
2018-09-08T23:38:31.871Z,17.45
2018-09-08T23:41:00.103Z,17.30
2018-09-08T23:43:28.358Z,17.33
2018-09-08T23:45:56.614Z,17.26
2018-09-08T23:48:25.134Z,17.36
2018-09-08T23:50:53.479Z,17.28
2018-09-08T23:53:21.698Z,17.28
2018-09-08T23:55:50.044Z,17.07
2018-09-08T23:58:18.254Z,17.27
